sensor_id;sensor_type;location;lat;lon;timestamp;P1;durP1;ratioP1;P2;durP2;ratioP2
11653;SDS011;5883;48.818;9.114;2022-10-31T00:01:20;8.18;;;3.92;;
11653;SDS011;5883;48.818;9.114;2022-10-31T00:03:48;6.45;;;4.07;;
11653;SDS011;5883;48.818;9.114;2022-10-31T00:06:15;9.82;;;4.18;;
11653;SDS011;5883;48.818;9.114;2022-10-31T00:08:43;10.20;;;4.38;;
11653;SDS011;5883;48.818;9.114;2022-10-31T00:11:10;5.97;;;3.75;;
11653;SDS011;5883;48.818;9.114;2022-10-31T00:13:37;5.57;;;3.60;;
11653;SDS011;5883;48.818;9.114;2022-10-31T00:16:03;11.05;;;4.13;;
11653;SDS011;5883;48.818;9.114;2022-10-31T00:18:30;5.90;;;3.70;;
11653;SDS011;5883;48.818;9.114;2022-10-31T00:21:01;4.85;;;3.35;;
11653;SDS011;5883;48.818;9.114;2022-10-31T00:23:28;4.15;;;3.10;;
11653;SDS011;5883;48.818;9.114;2022-10-31T00:25:59;5.28;;;3.42;;
11653;SDS011;5883;48.818;9.114;2022-10-31T00:28:26;9.82;;;4.10;;
11653;SDS011;5883;48.818;9.114;2022-10-31T00:30:52;6.15;;;3.95;;
11653;SDS011;5883;48.818;9.114;2022-10-31T00:33:19;4.53;;;3.50;;
11653;SDS011;5883;48.818;9.114;2022-10-31T00:35:48;8.20;;;3.53;;
11653;SDS011;5883;48.818;9.114;2022-10-31T00:38:17;5.50;;;3.38;;
11653;SDS011;5883;48.818;9.114;2022-10-31T00:40:43;8.30;;;3.45;;
11653;SDS011;5883;48.818;9.114;2022-10-31T00:43:09;6.63;;;3.53;;
11653;SDS011;5883;48.818;9.114;2022-10-31T00:45:36;5.07;;;3.40;;
11653;SDS011;5883;48.818;9.114;2022-10-31T00:48:02;5.85;;;3.42;;
11653;SDS011;5883;48.818;9.114;2022-10-31T00:50:29;8.82;;;3.50;;
11653;SDS011;5883;48.818;9.114;2022-10-31T00:52:56;6.28;;;3.72;;
11653;SDS011;5883;48.818;9.114;2022-10-31T00:55:24;6.88;;;3.55;;
11653;SDS011;5883;48.818;9.114;2022-10-31T00:57:50;7.88;;;3.30;;
11653;SDS011;5883;48.818;9.114;2022-10-31T01:00:17;6.57;;;3.75;;
11653;SDS011;5883;48.818;9.114;2022-10-31T01:02:43;6.85;;;3.63;;
11653;SDS011;5883;48.818;9.114;2022-10-31T01:05:10;6.38;;;3.15;;
11653;SDS011;5883;48.818;9.114;2022-10-31T01:07:36;6.32;;;3.38;;
11653;SDS011;5883;48.818;9.114;2022-10-31T01:10:03;10.02;;;4.03;;
11653;SDS011;5883;48.818;9.114;2022-10-31T01:12:31;5.13;;;3.15;;
11653;SDS011;5883;48.818;9.114;2022-10-31T01:15:01;5.13;;;2.95;;
11653;SDS011;5883;48.818;9.114;2022-10-31T01:17:28;4.88;;;3.22;;
11653;SDS011;5883;48.818;9.114;2022-10-31T01:19:54;5.22;;;3.10;;
11653;SDS011;5883;48.818;9.114;2022-10-31T01:22:21;6.55;;;3.38;;
11653;SDS011;5883;48.818;9.114;2022-10-31T01:24:47;4.35;;;3.03;;
11653;SDS011;5883;48.818;9.114;2022-10-31T01:27:14;5.07;;;3.30;;
11653;SDS011;5883;48.818;9.114;2022-10-31T01:29:41;6.28;;;3.17;;
11653;SDS011;5883;48.818;9.114;2022-10-31T01:32:08;7.85;;;3.40;;
11653;SDS011;5883;48.818;9.114;2022-10-31T01:34:34;4.30;;;3.13;;
11653;SDS011;5883;48.818;9.114;2022-10-31T01:37:01;5.35;;;3.38;;
11653;SDS011;5883;48.818;9.114;2022-10-31T01:39:27;6.53;;;4.07;;
11653;SDS011;5883;48.818;9.114;2022-10-31T01:41:54;4.35;;;3.83;;
11653;SDS011;5883;48.818;9.114;2022-10-31T01:47:08;8.05;;;3.88;;
11653;SDS011;5883;48.818;9.114;2022-10-31T01:49:37;5.15;;;3.40;;
11653;SDS011;5883;48.818;9.114;2022-10-31T01:52:04;9.73;;;3.88;;
11653;SDS011;5883;48.818;9.114;2022-10-31T01:54:33;9.00;;;3.53;;
11653;SDS011;5883;48.818;9.114;2022-10-31T01:57:01;6.60;;;3.42;;
11653;SDS011;5883;48.818;9.114;2022-10-31T01:59:29;7.47;;;3.38;;
11653;SDS011;5883;48.818;9.114;2022-10-31T02:01:56;7.05;;;3.00;;
11653;SDS011;5883;48.818;9.114;2022-10-31T02:04:24;9.45;;;3.95;;
11653;SDS011;5883;48.818;9.114;2022-10-31T02:06:53;4.97;;;3.28;;
11653;SDS011;5883;48.818;9.114;2022-10-31T02:09:21;8.65;;;3.88;;
11653;SDS011;5883;48.818;9.114;2022-10-31T02:11:49;6.68;;;3.88;;
11653;SDS011;5883;48.818;9.114;2022-10-31T02:14:16;9.32;;;3.53;;
11653;SDS011;5883;48.818;9.114;2022-10-31T02:16:42;9.00;;;3.42;;
11653;SDS011;5883;48.818;9.114;2022-10-31T02:19:09;11.88;;;4.28;;
11653;SDS011;5883;48.818;9.114;2022-10-31T02:21:42;3.92;;;2.95;;
11653;SDS011;5883;48.818;9.114;2022-10-31T02:24:28;6.90;;;3.63;;
11653;SDS011;5883;48.818;9.114;2022-10-31T02:27:02;6.78;;;3.25;;
11653;SDS011;5883;48.818;9.114;2022-10-31T02:29:45;5.03;;;3.50;;
11653;SDS011;5883;48.818;9.114;2022-10-31T02:32:18;8.30;;;3.63;;
11653;SDS011;5883;48.818;9.114;2022-10-31T02:34:48;5.60;;;3.20;;
11653;SDS011;5883;48.818;9.114;2022-10-31T02:37:18;8.90;;;4.20;;
11653;SDS011;5883;48.818;9.114;2022-10-31T02:39:49;5.30;;;3.55;;
11653;SDS011;5883;48.818;9.114;2022-10-31T02:42:18;6.03;;;3.83;;
11653;SDS011;5883;48.818;9.114;2022-10-31T02:44:49;9.05;;;3.95;;
11653;SDS011;5883;48.818;9.114;2022-10-31T02:47:21;5.72;;;3.53;;
11653;SDS011;5883;48.818;9.114;2022-10-31T02:49:50;6.60;;;4.03;;
11653;SDS011;5883;48.818;9.114;2022-10-31T02:52:20;4.43;;;3.30;;
11653;SDS011;5883;48.818;9.114;2022-10-31T02:54:47;5.63;;;3.42;;
11653;SDS011;5883;48.818;9.114;2022-10-31T02:57:13;6.82;;;3.85;;
11653;SDS011;5883;48.818;9.114;2022-10-31T02:59:42;5.22;;;3.70;;
11653;SDS011;5883;48.818;9.114;2022-10-31T03:04:59;5.60;;;3.75;;
11653;SDS011;5883;48.818;9.114;2022-10-31T03:07:30;11.75;;;3.85;;
11653;SDS011;5883;48.818;9.114;2022-10-31T03:10:03;8.07;;;4.13;;
11653;SDS011;5883;48.818;9.114;2022-10-31T03:12:33;9.88;;;4.22;;
11653;SDS011;5883;48.818;9.114;2022-10-31T03:15:05;7.88;;;3.50;;
11653;SDS011;5883;48.818;9.114;2022-10-31T03:17:36;7.10;;;3.40;;
11653;SDS011;5883;48.818;9.114;2022-10-31T03:20:05;7.80;;;3.85;;
11653;SDS011;5883;48.818;9.114;2022-10-31T03:22:33;5.13;;;3.67;;
11653;SDS011;5883;48.818;9.114;2022-10-31T03:25:01;4.55;;;3.22;;
11653;SDS011;5883;48.818;9.114;2022-10-31T03:27:28;10.77;;;4.10;;
11653;SDS011;5883;48.818;9.114;2022-10-31T03:29:57;11.15;;;3.65;;
11653;SDS011;5883;48.818;9.114;2022-10-31T03:32:25;6.35;;;3.90;;
11653;SDS011;5883;48.818;9.114;2022-10-31T03:34:54;7.10;;;3.95;;
11653;SDS011;5883;48.818;9.114;2022-10-31T03:37:23;8.80;;;3.97;;
11653;SDS011;5883;48.818;9.114;2022-10-31T03:39:50;6.50;;;3.53;;
11653;SDS011;5883;48.818;9.114;2022-10-31T03:42:18;6.75;;;3.63;;
11653;SDS011;5883;48.818;9.114;2022-10-31T03:44:46;9.57;;;3.95;;
11653;SDS011;5883;48.818;9.114;2022-10-31T03:47:15;6.53;;;3.45;;
11653;SDS011;5883;48.818;9.114;2022-10-31T03:49:42;5.07;;;3.72;;
11653;SDS011;5883;48.818;9.114;2022-10-31T03:52:10;7.90;;;3.42;;
11653;SDS011;5883;48.818;9.114;2022-10-31T03:54:42;6.82;;;3.75;;
11653;SDS011;5883;48.818;9.114;2022-10-31T03:57:11;7.80;;;4.38;;
11653;SDS011;5883;48.818;9.114;2022-10-31T03:59:41;6.32;;;4.05;;
11653;SDS011;5883;48.818;9.114;2022-10-31T04:02:10;5.40;;;3.30;;
11653;SDS011;5883;48.818;9.114;2022-10-31T04:04:37;5.97;;;3.70;;
11653;SDS011;5883;48.818;9.114;2022-10-31T04:07:04;6.47;;;3.65;;
11653;SDS011;5883;48.818;9.114;2022-10-31T04:09:32;4.20;;;3.33;;
11653;SDS011;5883;48.818;9.114;2022-10-31T04:12:01;5.57;;;3.50;;
11653;SDS011;5883;48.818;9.114;2022-10-31T04:14:31;7.18;;;3.33;;
11653;SDS011;5883;48.818;9.114;2022-10-31T04:16:58;8.50;;;3.40;;
11653;SDS011;5883;48.818;9.114;2022-10-31T04:19:26;4.65;;;3.58;;
11653;SDS011;5883;48.818;9.114;2022-10-31T04:21:52;6.75;;;3.35;;
11653;SDS011;5883;48.818;9.114;2022-10-31T04:24:19;6.20;;;3.58;;
11653;SDS011;5883;48.818;9.114;2022-10-31T04:26:45;5.85;;;3.63;;
11653;SDS011;5883;48.818;9.114;2022-10-31T04:29:13;13.48;;;4.18;;
11653;SDS011;5883;48.818;9.114;2022-10-31T04:31:39;5.97;;;3.67;;
11653;SDS011;5883;48.818;9.114;2022-10-31T04:34:06;8.30;;;3.72;;
11653;SDS011;5883;48.818;9.114;2022-10-31T04:36:33;6.63;;;3.38;;
11653;SDS011;5883;48.818;9.114;2022-10-31T04:38:59;6.82;;;3.28;;
11653;SDS011;5883;48.818;9.114;2022-10-31T04:41:26;5.22;;;3.17;;
11653;SDS011;5883;48.818;9.114;2022-10-31T04:43:52;4.97;;;3.20;;
11653;SDS011;5883;48.818;9.114;2022-10-31T04:46:20;6.78;;;3.72;;
11653;SDS011;5883;48.818;9.114;2022-10-31T04:48:46;8.38;;;3.38;;
11653;SDS011;5883;48.818;9.114;2022-10-31T04:51:13;4.95;;;3.53;;
11653;SDS011;5883;48.818;9.114;2022-10-31T04:53:39;4.47;;;3.13;;
11653;SDS011;5883;48.818;9.114;2022-10-31T04:56:06;6.13;;;3.58;;
11653;SDS011;5883;48.818;9.114;2022-10-31T04:58:32;6.18;;;3.53;;
11653;SDS011;5883;48.818;9.114;2022-10-31T05:00:59;7.93;;;3.65;;
11653;SDS011;5883;48.818;9.114;2022-10-31T05:03:27;6.60;;;3.58;;
11653;SDS011;5883;48.818;9.114;2022-10-31T05:05:53;5.15;;;3.45;;
11653;SDS011;5883;48.818;9.114;2022-10-31T05:08:19;5.95;;;3.25;;
11653;SDS011;5883;48.818;9.114;2022-10-31T05:10:46;8.65;;;3.53;;
11653;SDS011;5883;48.818;9.114;2022-10-31T05:13:12;6.72;;;3.30;;
11653;SDS011;5883;48.818;9.114;2022-10-31T05:15:40;6.78;;;3.13;;
11653;SDS011;5883;48.818;9.114;2022-10-31T05:18:07;8.85;;;3.90;;
11653;SDS011;5883;48.818;9.114;2022-10-31T05:20:34;5.53;;;3.53;;
11653;SDS011;5883;48.818;9.114;2022-10-31T05:23:01;5.85;;;3.45;;
11653;SDS011;5883;48.818;9.114;2022-10-31T05:25:28;12.73;;;3.67;;
11653;SDS011;5883;48.818;9.114;2022-10-31T05:27:54;6.97;;;3.70;;
11653;SDS011;5883;48.818;9.114;2022-10-31T05:30:22;6.05;;;3.35;;
11653;SDS011;5883;48.818;9.114;2022-10-31T05:32:49;5.90;;;3.40;;
11653;SDS011;5883;48.818;9.114;2022-10-31T05:35:17;7.32;;;3.90;;
11653;SDS011;5883;48.818;9.114;2022-10-31T05:37:45;7.05;;;3.60;;
11653;SDS011;5883;48.818;9.114;2022-10-31T05:40:12;6.65;;;3.38;;
11653;SDS011;5883;48.818;9.114;2022-10-31T05:42:39;5.60;;;3.17;;
11653;SDS011;5883;48.818;9.114;2022-10-31T05:45:06;7.30;;;3.60;;
11653;SDS011;5883;48.818;9.114;2022-10-31T05:47:32;8.85;;;3.40;;
11653;SDS011;5883;48.818;9.114;2022-10-31T05:49:59;6.60;;;3.58;;
11653;SDS011;5883;48.818;9.114;2022-10-31T05:52:25;8.00;;;3.38;;
11653;SDS011;5883;48.818;9.114;2022-10-31T05:54:53;7.60;;;3.80;;
11653;SDS011;5883;48.818;9.114;2022-10-31T05:57:20;7.70;;;3.90;;
11653;SDS011;5883;48.818;9.114;2022-10-31T05:59:46;8.10;;;4.13;;
11653;SDS011;5883;48.818;9.114;2022-10-31T06:02:13;6.10;;;3.45;;
11653;SDS011;5883;48.818;9.114;2022-10-31T06:04:39;5.28;;;3.47;;
11653;SDS011;5883;48.818;9.114;2022-10-31T06:07:06;5.50;;;3.50;;
11653;SDS011;5883;48.818;9.114;2022-10-31T06:09:32;5.28;;;3.05;;
11653;SDS011;5883;48.818;9.114;2022-10-31T06:12:00;4.97;;;3.55;;
11653;SDS011;5883;48.818;9.114;2022-10-31T06:14:26;7.35;;;3.78;;
11653;SDS011;5883;48.818;9.114;2022-10-31T06:16:53;7.63;;;3.65;;
11653;SDS011;5883;48.818;9.114;2022-10-31T06:19:20;7.07;;;3.30;;
11653;SDS011;5883;48.818;9.114;2022-10-31T06:21:46;6.82;;;3.78;;
11653;SDS011;5883;48.818;9.114;2022-10-31T06:24:13;6.43;;;3.35;;
11653;SDS011;5883;48.818;9.114;2022-10-31T06:26:40;8.32;;;3.53;;
11653;SDS011;5883;48.818;9.114;2022-10-31T06:29:08;7.18;;;3.65;;
11653;SDS011;5883;48.818;9.114;2022-10-31T06:31:34;7.78;;;4.15;;
11653;SDS011;5883;48.818;9.114;2022-10-31T06:34:01;7.82;;;3.92;;
11653;SDS011;5883;48.818;9.114;2022-10-31T06:36:27;8.07;;;3.80;;
11653;SDS011;5883;48.818;9.114;2022-10-31T06:38:54;8.88;;;5.22;;
11653;SDS011;5883;48.818;9.114;2022-10-31T06:41:20;5.65;;;4.15;;
11653;SDS011;5883;48.818;9.114;2022-10-31T06:43:47;10.55;;;4.47;;
11653;SDS011;5883;48.818;9.114;2022-10-31T06:46:15;5.32;;;3.63;;
11653;SDS011;5883;48.818;9.114;2022-10-31T06:48:41;9.35;;;4.25;;
11653;SDS011;5883;48.818;9.114;2022-10-31T06:51:08;12.98;;;6.35;;
11653;SDS011;5883;48.818;9.114;2022-10-31T06:53:34;8.52;;;6.00;;
11653;SDS011;5883;48.818;9.114;2022-10-31T06:56:01;5.72;;;4.90;;
11653;SDS011;5883;48.818;9.114;2022-10-31T06:58:27;9.50;;;4.45;;
11653;SDS011;5883;48.818;9.114;2022-10-31T07:00:54;8.38;;;4.22;;
11653;SDS011;5883;48.818;9.114;2022-10-31T07:03:22;8.60;;;4.93;;
11653;SDS011;5883;48.818;9.114;2022-10-31T07:05:48;7.80;;;4.13;;
11653;SDS011;5883;48.818;9.114;2022-10-31T07:08:14;4.10;;;3.70;;
11653;SDS011;5883;48.818;9.114;2022-10-31T07:10:41;7.70;;;3.97;;
11653;SDS011;5883;48.818;9.114;2022-10-31T07:13:09;9.10;;;5.53;;
11653;SDS011;5883;48.818;9.114;2022-10-31T07:15:37;8.60;;;5.28;;
11653;SDS011;5883;48.818;9.114;2022-10-31T07:18:04;7.05;;;4.95;;
11653;SDS011;5883;48.818;9.114;2022-10-31T07:20:32;6.57;;;4.50;;
11653;SDS011;5883;48.818;9.114;2022-10-31T07:22:59;7.05;;;4.75;;
11653;SDS011;5883;48.818;9.114;2022-10-31T07:25:25;9.68;;;5.05;;
11653;SDS011;5883;48.818;9.114;2022-10-31T07:27:52;7.50;;;5.25;;
11653;SDS011;5883;48.818;9.114;2022-10-31T07:30:19;6.32;;;4.57;;
11653;SDS011;5883;48.818;9.114;2022-10-31T07:32:46;10.10;;;4.70;;
11653;SDS011;5883;48.818;9.114;2022-10-31T07:35:13;11.98;;;4.70;;
11653;SDS011;5883;48.818;9.114;2022-10-31T07:37:41;9.23;;;4.63;;
11653;SDS011;5883;48.818;9.114;2022-10-31T07:40:08;9.75;;;4.35;;
11653;SDS011;5883;48.818;9.114;2022-10-31T07:42:35;9.68;;;4.72;;
11653;SDS011;5883;48.818;9.114;2022-10-31T07:45:02;8.15;;;3.97;;
11653;SDS011;5883;48.818;9.114;2022-10-31T07:47:29;8.60;;;3.97;;
11653;SDS011;5883;48.818;9.114;2022-10-31T07:49:55;6.00;;;3.70;;
11653;SDS011;5883;48.818;9.114;2022-10-31T07:52:21;11.32;;;4.97;;
11653;SDS011;5883;48.818;9.114;2022-10-31T07:54:49;7.38;;;4.00;;
11653;SDS011;5883;48.818;9.114;2022-10-31T07:57:16;13.90;;;4.80;;
11653;SDS011;5883;48.818;9.114;2022-10-31T07:59:42;7.05;;;4.43;;
11653;SDS011;5883;48.818;9.114;2022-10-31T08:02:09;12.50;;;3.83;;
11653;SDS011;5883;48.818;9.114;2022-10-31T08:04:35;6.63;;;4.20;;
11653;SDS011;5883;48.818;9.114;2022-10-31T08:07:02;6.50;;;4.03;;
11653;SDS011;5883;48.818;9.114;2022-10-31T08:09:28;8.15;;;4.10;;
11653;SDS011;5883;48.818;9.114;2022-10-31T08:11:56;15.13;;;4.78;;
11653;SDS011;5883;48.818;9.114;2022-10-31T08:14:23;15.07;;;5.93;;
11653;SDS011;5883;48.818;9.114;2022-10-31T08:16:49;14.68;;;5.35;;
11653;SDS011;5883;48.818;9.114;2022-10-31T08:19:16;11.40;;;5.25;;
11653;SDS011;5883;48.818;9.114;2022-10-31T08:21:42;9.02;;;5.00;;
11653;SDS011;5883;48.818;9.114;2022-10-31T08:24:09;10.63;;;4.45;;
11653;SDS011;5883;48.818;9.114;2022-10-31T08:26:36;13.45;;;5.47;;
11653;SDS011;5883;48.818;9.114;2022-10-31T08:29:04;11.10;;;5.18;;
11653;SDS011;5883;48.818;9.114;2022-10-31T08:31:30;12.35;;;4.53;;
11653;SDS011;5883;48.818;9.114;2022-10-31T08:33:57;10.60;;;5.28;;
11653;SDS011;5883;48.818;9.114;2022-10-31T08:36:23;15.82;;;5.13;;
11653;SDS011;5883;48.818;9.114;2022-10-31T08:38:50;11.50;;;4.68;;
11653;SDS011;5883;48.818;9.114;2022-10-31T08:41:17;9.40;;;4.78;;
11653;SDS011;5883;48.818;9.114;2022-10-31T08:43:47;8.65;;;4.65;;
11653;SDS011;5883;48.818;9.114;2022-10-31T08:46:15;8.70;;;4.50;;
11653;SDS011;5883;48.818;9.114;2022-10-31T08:48:41;9.55;;;4.18;;
11653;SDS011;5883;48.818;9.114;2022-10-31T08:51:08;12.07;;;4.60;;
11653;SDS011;5883;48.818;9.114;2022-10-31T08:53:35;10.15;;;4.93;;
11653;SDS011;5883;48.818;9.114;2022-10-31T08:56:01;8.85;;;4.63;;
11653;SDS011;5883;48.818;9.114;2022-10-31T08:58:28;9.38;;;3.88;;
11653;SDS011;5883;48.818;9.114;2022-10-31T09:00:54;11.05;;;4.55;;
11653;SDS011;5883;48.818;9.114;2022-10-31T09:03:24;12.10;;;4.35;;
11653;SDS011;5883;48.818;9.114;2022-10-31T09:05:50;6.18;;;4.38;;
11653;SDS011;5883;48.818;9.114;2022-10-31T09:08:20;7.28;;;3.80;;
11653;SDS011;5883;48.818;9.114;2022-10-31T09:10:47;8.75;;;3.95;;
11653;SDS011;5883;48.818;9.114;2022-10-31T09:13:14;7.78;;;4.32;;
11653;SDS011;5883;48.818;9.114;2022-10-31T09:15:41;4.85;;;4.05;;
11653;SDS011;5883;48.818;9.114;2022-10-31T09:18:09;8.88;;;3.47;;
11653;SDS011;5883;48.818;9.114;2022-10-31T09:20:37;7.10;;;4.07;;
11653;SDS011;5883;48.818;9.114;2022-10-31T09:23:04;9.00;;;3.90;;
11653;SDS011;5883;48.818;9.114;2022-10-31T09:25:32;13.77;;;4.40;;
11653;SDS011;5883;48.818;9.114;2022-10-31T09:27:59;11.40;;;3.88;;
11653;SDS011;5883;48.818;9.114;2022-10-31T09:30:26;9.48;;;4.38;;
11653;SDS011;5883;48.818;9.114;2022-10-31T09:32:56;6.53;;;3.72;;
11653;SDS011;5883;48.818;9.114;2022-10-31T09:35:23;6.20;;;3.88;;
11653;SDS011;5883;48.818;9.114;2022-10-31T09:37:54;8.50;;;4.40;;
11653;SDS011;5883;48.818;9.114;2022-10-31T09:40:21;6.95;;;3.75;;
11653;SDS011;5883;48.818;9.114;2022-10-31T09:42:51;6.70;;;3.90;;
11653;SDS011;5883;48.818;9.114;2022-10-31T09:45:21;6.50;;;3.50;;
11653;SDS011;5883;48.818;9.114;2022-10-31T09:47:53;6.88;;;3.88;;
11653;SDS011;5883;48.818;9.114;2022-10-31T09:50:20;6.95;;;4.00;;
11653;SDS011;5883;48.818;9.114;2022-10-31T09:52:50;9.20;;;3.85;;
11653;SDS011;5883;48.818;9.114;2022-10-31T09:55:21;6.53;;;3.65;;
11653;SDS011;5883;48.818;9.114;2022-10-31T09:57:49;10.70;;;3.95;;
11653;SDS011;5883;48.818;9.114;2022-10-31T10:00:17;8.65;;;3.83;;
11653;SDS011;5883;48.818;9.114;2022-10-31T10:02:44;7.00;;;3.63;;
11653;SDS011;5883;48.818;9.114;2022-10-31T10:05:14;6.90;;;3.88;;
11653;SDS011;5883;48.818;9.114;2022-10-31T10:07:44;11.70;;;3.70;;
11653;SDS011;5883;48.818;9.114;2022-10-31T10:10:14;5.10;;;4.07;;
11653;SDS011;5883;48.818;9.114;2022-10-31T10:12:47;6.72;;;3.50;;
11653;SDS011;5883;48.818;9.114;2022-10-31T10:15:24;12.93;;;3.92;;
11653;SDS011;5883;48.818;9.114;2022-10-31T10:17:56;10.05;;;4.13;;
11653;SDS011;5883;48.818;9.114;2022-10-31T10:20:28;7.05;;;4.68;;
11653;SDS011;5883;48.818;9.114;2022-10-31T10:23:00;8.95;;;3.70;;
11653;SDS011;5883;48.818;9.114;2022-10-31T10:25:31;9.80;;;4.00;;
11653;SDS011;5883;48.818;9.114;2022-10-31T10:28:03;7.55;;;4.07;;
11653;SDS011;5883;48.818;9.114;2022-10-31T10:30:33;8.82;;;4.15;;
11653;SDS011;5883;48.818;9.114;2022-10-31T10:33:02;8.98;;;4.22;;
11653;SDS011;5883;48.818;9.114;2022-10-31T10:35:31;10.20;;;4.10;;
11653;SDS011;5883;48.818;9.114;2022-10-31T10:38:00;11.38;;;4.10;;
11653;SDS011;5883;48.818;9.114;2022-10-31T10:40:28;12.85;;;4.13;;
11653;SDS011;5883;48.818;9.114;2022-10-31T10:42:56;10.48;;;4.60;;
11653;SDS011;5883;48.818;9.114;2022-10-31T10:45:44;9.32;;;3.40;;
11653;SDS011;5883;48.818;9.114;2022-10-31T10:48:30;8.55;;;4.15;;
11653;SDS011;5883;48.818;9.114;2022-10-31T10:51:21;6.82;;;3.90;;
11653;SDS011;5883;48.818;9.114;2022-10-31T10:53:51;8.85;;;3.50;;
11653;SDS011;5883;48.818;9.114;2022-10-31T10:56:30;7.55;;;3.50;;
11653;SDS011;5883;48.818;9.114;2022-10-31T10:58:58;6.15;;;3.33;;
11653;SDS011;5883;48.818;9.114;2022-10-31T11:01:25;7.18;;;3.50;;
11653;SDS011;5883;48.818;9.114;2022-10-31T11:03:51;9.10;;;4.10;;
11653;SDS011;5883;48.818;9.114;2022-10-31T11:06:19;10.85;;;4.32;;
11653;SDS011;5883;48.818;9.114;2022-10-31T11:08:50;6.47;;;3.80;;
11653;SDS011;5883;48.818;9.114;2022-10-31T11:11:24;13.65;;;4.05;;
11653;SDS011;5883;48.818;9.114;2022-10-31T11:13:54;5.60;;;3.75;;
11653;SDS011;5883;48.818;9.114;2022-10-31T11:16:27;5.18;;;3.47;;
11653;SDS011;5883;48.818;9.114;2022-10-31T11:18:54;9.45;;;3.88;;
11653;SDS011;5883;48.818;9.114;2022-10-31T11:21:33;7.88;;;3.60;;
11653;SDS011;5883;48.818;9.114;2022-10-31T11:24:03;5.38;;;4.15;;
11653;SDS011;5883;48.818;9.114;2022-10-31T11:26:30;6.32;;;4.00;;
11653;SDS011;5883;48.818;9.114;2022-10-31T11:28:56;6.00;;;3.75;;
11653;SDS011;5883;48.818;9.114;2022-10-31T11:31:23;12.30;;;4.03;;
11653;SDS011;5883;48.818;9.114;2022-10-31T11:33:52;6.68;;;3.60;;
11653;SDS011;5883;48.818;9.114;2022-10-31T11:36:23;14.65;;;3.90;;
11653;SDS011;5883;48.818;9.114;2022-10-31T11:38:52;9.27;;;3.80;;
11653;SDS011;5883;48.818;9.114;2022-10-31T11:41:19;9.07;;;3.85;;
11653;SDS011;5883;48.818;9.114;2022-10-31T11:43:50;11.63;;;4.28;;
11653;SDS011;5883;48.818;9.114;2022-10-31T11:46:19;6.57;;;3.72;;
11653;SDS011;5883;48.818;9.114;2022-10-31T11:48:46;9.45;;;4.07;;
11653;SDS011;5883;48.818;9.114;2022-10-31T11:51:19;7.22;;;3.88;;
11653;SDS011;5883;48.818;9.114;2022-10-31T11:53:49;11.07;;;4.22;;
11653;SDS011;5883;48.818;9.114;2022-10-31T11:56:18;12.52;;;3.92;;
11653;SDS011;5883;48.818;9.114;2022-10-31T11:58:54;10.20;;;3.88;;
11653;SDS011;5883;48.818;9.114;2022-10-31T12:01:22;11.75;;;3.70;;
11653;SDS011;5883;48.818;9.114;2022-10-31T12:03:51;11.75;;;4.03;;
11653;SDS011;5883;48.818;9.114;2022-10-31T12:06:21;6.88;;;3.72;;
11653;SDS011;5883;48.818;9.114;2022-10-31T12:08:48;8.13;;;3.65;;
11653;SDS011;5883;48.818;9.114;2022-10-31T12:11:20;4.78;;;3.45;;
11653;SDS011;5883;48.818;9.114;2022-10-31T12:13:52;7.47;;;3.72;;
11653;SDS011;5883;48.818;9.114;2022-10-31T12:16:28;7.50;;;3.50;;
11653;SDS011;5883;48.818;9.114;2022-10-31T12:18:59;14.98;;;3.85;;
11653;SDS011;5883;48.818;9.114;2022-10-31T12:21:34;7.90;;;3.28;;
11653;SDS011;5883;48.818;9.114;2022-10-31T12:24:08;8.23;;;3.40;;
11653;SDS011;5883;48.818;9.114;2022-10-31T12:26:38;6.85;;;3.47;;
11653;SDS011;5883;48.818;9.114;2022-10-31T12:29:10;7.47;;;3.65;;
11653;SDS011;5883;48.818;9.114;2022-10-31T12:31:43;7.35;;;3.20;;
11653;SDS011;5883;48.818;9.114;2022-10-31T12:34:25;7.78;;;3.30;;
11653;SDS011;5883;48.818;9.114;2022-10-31T12:36:57;9.52;;;3.53;;
11653;SDS011;5883;48.818;9.114;2022-10-31T12:39:29;9.35;;;3.00;;
11653;SDS011;5883;48.818;9.114;2022-10-31T12:42:01;6.07;;;3.78;;
11653;SDS011;5883;48.818;9.114;2022-10-31T12:44:38;6.82;;;3.38;;
11653;SDS011;5883;48.818;9.114;2022-10-31T12:47:11;6.68;;;3.47;;
11653;SDS011;5883;48.818;9.114;2022-10-31T12:49:47;6.85;;;3.22;;
11653;SDS011;5883;48.818;9.114;2022-10-31T12:52:20;7.60;;;3.63;;
11653;SDS011;5883;48.818;9.114;2022-10-31T12:54:58;8.98;;;3.60;;
11653;SDS011;5883;48.818;9.114;2022-10-31T12:57:31;8.40;;;3.63;;
11653;SDS011;5883;48.818;9.114;2022-10-31T13:00:00;4.82;;;3.42;;
11653;SDS011;5883;48.818;9.114;2022-10-31T13:02:29;6.90;;;3.33;;
11653;SDS011;5883;48.818;9.114;2022-10-31T13:04:58;7.97;;;3.65;;
11653;SDS011;5883;48.818;9.114;2022-10-31T13:07:28;8.10;;;4.43;;
11653;SDS011;5883;48.818;9.114;2022-10-31T13:09:56;5.90;;;4.28;;
11653;SDS011;5883;48.818;9.114;2022-10-31T13:12:24;14.32;;;4.68;;
11653;SDS011;5883;48.818;9.114;2022-10-31T13:14:55;13.27;;;4.63;;
11653;SDS011;5883;48.818;9.114;2022-10-31T13:17:25;11.55;;;4.35;;
11653;SDS011;5883;48.818;9.114;2022-10-31T13:19:53;7.90;;;4.22;;
11653;SDS011;5883;48.818;9.114;2022-10-31T13:22:24;10.02;;;4.50;;
11653;SDS011;5883;48.818;9.114;2022-10-31T13:24:53;9.57;;;4.35;;
11653;SDS011;5883;48.818;9.114;2022-10-31T13:27:21;9.95;;;4.28;;
11653;SDS011;5883;48.818;9.114;2022-10-31T13:29:52;10.32;;;4.60;;
11653;SDS011;5883;48.818;9.114;2022-10-31T13:32:25;8.65;;;4.18;;
11653;SDS011;5883;48.818;9.114;2022-10-31T13:34:53;11.70;;;4.93;;
11653;SDS011;5883;48.818;9.114;2022-10-31T13:37:23;12.68;;;4.78;;
11653;SDS011;5883;48.818;9.114;2022-10-31T13:39:59;7.93;;;4.47;;
11653;SDS011;5883;48.818;9.114;2022-10-31T13:42:34;10.18;;;4.75;;
11653;SDS011;5883;48.818;9.114;2022-10-31T13:45:11;9.82;;;4.45;;
11653;SDS011;5883;48.818;9.114;2022-10-31T13:47:40;10.60;;;4.80;;
11653;SDS011;5883;48.818;9.114;2022-10-31T13:50:20;10.30;;;4.70;;
11653;SDS011;5883;48.818;9.114;2022-10-31T13:52:46;11.80;;;3.97;;
11653;SDS011;5883;48.818;9.114;2022-10-31T13:55:35;8.68;;;4.38;;
11653;SDS011;5883;48.818;9.114;2022-10-31T13:58:17;9.45;;;4.13;;
11653;SDS011;5883;48.818;9.114;2022-10-31T14:00:45;9.85;;;4.10;;
11653;SDS011;5883;48.818;9.114;2022-10-31T14:03:17;7.47;;;3.70;;
11653;SDS011;5883;48.818;9.114;2022-10-31T14:05:51;7.68;;;4.07;;
11653;SDS011;5883;48.818;9.114;2022-10-31T14:08:18;8.05;;;3.92;;
11653;SDS011;5883;48.818;9.114;2022-10-31T14:10:46;16.05;;;5.25;;
11653;SDS011;5883;48.818;9.114;2022-10-31T14:13:14;6.07;;;3.90;;
11653;SDS011;5883;48.818;9.114;2022-10-31T14:15:43;9.63;;;4.20;;
11653;SDS011;5883;48.818;9.114;2022-10-31T14:18:23;14.07;;;4.60;;
11653;SDS011;5883;48.818;9.114;2022-10-31T14:20:50;11.68;;;4.45;;
11653;SDS011;5883;48.818;9.114;2022-10-31T14:23:34;8.70;;;4.32;;
11653;SDS011;5883;48.818;9.114;2022-10-31T14:26:07;7.13;;;4.05;;
11653;SDS011;5883;48.818;9.114;2022-10-31T14:28:41;6.00;;;3.67;;
11653;SDS011;5883;48.818;9.114;2022-10-31T14:31:26;10.90;;;4.35;;
11653;SDS011;5883;48.818;9.114;2022-10-31T14:33:55;10.18;;;4.20;;
11653;SDS011;5883;48.818;9.114;2022-10-31T14:36:23;10.60;;;4.32;;
11653;SDS011;5883;48.818;9.114;2022-10-31T14:38:53;11.50;;;4.63;;
11653;SDS011;5883;48.818;9.114;2022-10-31T14:41:25;12.07;;;4.90;;
11653;SDS011;5883;48.818;9.114;2022-10-31T14:44:07;12.32;;;4.72;;
11653;SDS011;5883;48.818;9.114;2022-10-31T14:46:38;10.95;;;3.95;;
11653;SDS011;5883;48.818;9.114;2022-10-31T14:49:16;10.68;;;4.82;;
11653;SDS011;5883;48.818;9.114;2022-10-31T14:51:45;10.40;;;3.97;;
11653;SDS011;5883;48.818;9.114;2022-10-31T14:54:15;10.65;;;4.65;;
11653;SDS011;5883;48.818;9.114;2022-10-31T14:56:46;8.15;;;4.07;;
11653;SDS011;5883;48.818;9.114;2022-10-31T14:59:18;11.25;;;4.15;;
11653;SDS011;5883;48.818;9.114;2022-10-31T15:01:50;10.93;;;4.57;;
11653;SDS011;5883;48.818;9.114;2022-10-31T15:04:20;9.15;;;4.55;;
11653;SDS011;5883;48.818;9.114;2022-10-31T15:06:49;7.70;;;4.35;;
11653;SDS011;5883;48.818;9.114;2022-10-31T15:09:22;6.93;;;3.70;;
11653;SDS011;5883;48.818;9.114;2022-10-31T15:11:55;7.80;;;4.15;;
11653;SDS011;5883;48.818;9.114;2022-10-31T15:14:25;6.70;;;4.38;;